Time;durP1;ratioP1;P1;durP2;ratioP2;P2;SDS_P1;SDS_P2;PMS_P1;PMS_P2;Temp;Humidity;BMP_temperature;BMP_pressure;BME280_temperature;BME280_humidity;BME280_pressure;Samples;Min_cycle;Max_cycle;Signal;HPM_P1;HPM_P2
2021/06/09 00:01:49;;;;;;;0.50;0.50;;;;;;;;;;5079665;28;20889;-63
2021/06/09 00:04:27;;;;;;;0.00;0.00;;;;;;;;;;5080954;28;20700;-64
2021/06/09 00:06:56;;;;;;;1.30;0.47;;;;;;;;;;5086771;28;20196;-64
2021/06/09 00:09:24;;;;;;;2.20;0.90;;;;;;;;;;5074529;28;20297;-63
2021/06/09 00:11:56;;;;;;;0.53;0.53;;;;;;;;;;5075824;28;20184;-64
2021/06/09 00:14:28;;;;;;;0.00;0.00;;;;;;;;;;5081220;28;20314;-64
2021/06/09 00:16:59;;;;;;;2.73;2.53;;;;;;;;;;5079634;28;20722;-64
2021/06/09 00:19:38;;;;;;;0.00;0.00;;;;;;;;;;5095773;28;20553;-64
2021/06/09 00:22:07;;;;;;;2.10;0.73;;;;;;;;;;5081111;28;20194;-64
2021/06/09 00:24:38;;;;;;;0.40;0.40;;;;;;;;;;5084772;28;20285;-64
2021/06/09 00:27:05;;;;;;;0.00;0.00;;;;;;;;;;5074807;28;20314;-65
2021/06/09 00:29:31;;;;;;;0.00;0.00;;;;;;;;;;5076609;28;20255;-64
2021/06/09 00:31:58;;;;;;;0.00;0.00;;;;;;;;;;5079523;28;20264;-64
2021/06/09 00:34:38;;;;;;;0.77;0.30;;;;;;;;;;5086508;28;20188;-64
2021/06/09 00:37:06;;;;;;;1.00;0.50;;;;;;;;;;5072088;28;20683;-64
2021/06/09 00:39:36;;;;;;;0.10;0.10;;;;;;;;;;5071485;28;20266;-64
2021/06/09 00:42:11;;;;;;;0.63;0.63;;;;;;;;;;5072114;28;20195;-64
2021/06/09 00:44:38;;;;;;;0.00;0.00;;;;;;;;;;5074661;28;20190;-65
2021/06/09 00:47:06;;;;;;;0.00;0.00;;;;;;;;;;5071443;28;20192;-64
2021/06/09 13:01:05;;;;;;;0.20;0.20;;;;;;;;;;5062990;27;20782;-64
2021/06/09 13:03:48;;;;;;;0.10;0.10;;;;;;;;;;5072690;28;20167;-63
2021/06/09 13:06:15;;;;;;;4.90;1.73;;;;;;;;;;5070589;28;20853;-64
2021/06/09 13:08:45;;;;;;;0.60;0.43;;;;;;;;;;5061223;28;20193;-63
2021/06/09 13:11:22;;;;;;;8.03;1.13;;;;;;;;;;5068327;28;20240;-64
2021/06/09 13:13:52;;;;;;;0.27;0.20;;;;;;;;;;5073421;28;20182;-64
2021/06/09 13:16:20;;;;;;;0.00;0.00;;;;;;;;;;5064859;28;20193;-64
2021/06/09 13:18:52;;;;;;;3.97;1.30;;;;;;;;;;5069577;28;20272;-63
2021/06/09 13:21:19;;;;;;;2.57;2.37;;;;;;;;;;5063839;28;20189;-63
2021/06/09 13:23:46;;;;;;;0.63;0.50;;;;;;;;;;5067061;28;20186;-63
2021/06/09 13:26:13;;;;;;;0.03;0.03;;;;;;;;;;5075522;28;20799;-64
2021/06/09 13:28:40;;;;;;;2.33;0.67;;;;;;;;;;5065406;28;20258;-64
2021/06/09 13:31:06;;;;;;;0.23;0.23;;;;;;;;;;5065662;28;20194;-64
2021/06/09 13:33:33;;;;;;;0.33;0.33;;;;;;;;;;5065253;28;20329;-64
2021/06/09 13:35:59;;;;;;;0.00;0.00;;;;;;;;;;5076419;28;21028;-63
2021/06/09 13:38:26;;;;;;;0.10;0.10;;;;;;;;;;5067858;28;20276;-64
2021/06/09 13:40:55;;;;;;;5.57;0.47;;;;;;;;;;5066980;28;20197;-65
2021/06/09 13:43:25;;;;;;;2.40;0.43;;;;;;;;;;5072759;28;20188;-64
2021/06/09 13:45:56;;;;;;;1.53;1.43;;;;;;;;;;5070824;28;20191;-64
2021/06/09 13:48:24;;;;;;;3.13;2.00;;;;;;;;;;5072087;28;20180;-64
2021/06/09 13:51:14;;;;;;;0.67;0.67;;;;;;;;;;5064199;28;20173;-65
2021/06/09 13:53:52;;;;;;;0.77;0.47;;;;;;;;;;5071918;28;20184;-65
2021/06/09 13:56:27;;;;;;;1.30;0.20;;;;;;;;;;5069132;28;20180;-64
2021/06/09 13:59:09;;;;;;;20.40;1.90;;;;;;;;;;5068866;28;20669;-64
2021/06/09 14:01:39;;;;;;;0.40;0.20;;;;;;;;;;5069004;28;20176;-64
2021/06/09 14:04:05;;;;;;;0.87;0.83;;;;;;;;;;5076342;28;20196;-65
2021/06/09 14:06:32;;;;;;;0.50;0.50;;;;;;;;;;5070378;28;20189;-64
2021/06/09 14:09:07;;;;;;;0.10;0.10;;;;;;;;;;5066026;28;20191;-64
2021/06/09 14:11:34;;;;;;;0.40;0.40;;;;;;;;;;5064886;28;20639;-64
2021/06/09 14:14:03;;;;;;;0.30;0.30;;;;;;;;;;5061501;28;20197;-64
2021/06/09 14:16:29;;;;;;;0.00;0.00;;;;;;;;;;5050119;28;20236;-64
2021/06/09 14:19:06;;;;;;;6.03;1.13;;;;;;;;;;5049097;28;20255;-64
2021/06/09 14:21:33;;;;;;;0.57;0.20;;;;;;;;;;5062166;28;20219;-64
2021/06/09 14:24:00;;;;;;;3.40;0.87;;;;;;;;;;5059244;28;20182;-64
2021/06/09 14:26:29;;;;;;;1.50;1.13;;;;;;;;;;5056628;28;20185;-64
2021/06/09 14:28:55;;;;;;;1.37;1.37;;;;;;;;;;5058937;28;20216;-64
2021/06/09 14:31:23;;;;;;;2.07;1.90;;;;;;;;;;5055142;28;20644;-64
2021/06/09 14:34:13;;;;;;;1.70;0.60;;;;;;;;;;5055791;28;20177;-63
2021/06/09 14:36:46;;;;;;;6.13;1.20;;;;;;;;;;5050475;28;20745;-64
2021/06/09 14:39:13;;;;;;;0.87;0.63;;;;;;;;;;5053874;28;20210;-64
2021/06/09 14:41:49;;;;;;;3.10;0.53;;;;;;;;;;5061601;28;20190;-64
2021/06/09 14:44:47;;;;;;;3.30;2.20;;;;;;;;;;5057110;28;20476;-64
2021/06/09 14:49:48;;;;;;;4.57;0.57;;;;;;;;;;5056397;28;20650;-63
2021/06/09 14:52:25;;;;;;;9.20;8.40;;;;;;;;;;5054791;28;20185;-64
2021/06/09 14:54:54;;;;;;;8.37;2.00;;;;;;;;;;5058777;28;20654;-64
2021/06/09 14:57:21;;;;;;;2.17;0.80;;;;;;;;;;5058466;28;20175;-64
2021/06/09 14:59:51;;;;;;;0.40;0.40;;;;;;;;;;5053446;28;20233;-62
2021/06/09 15:02:18;;;;;;;0.00;0.00;;;;;;;;;;5058171;28;20214;-62
2021/06/09 15:04:44;;;;;;;0.03;0.03;;;;;;;;;;5052669;28;20455;-62
2021/06/09 15:07:11;;;;;;;3.40;2.27;;;;;;;;;;5053248;28;20187;-61
2021/06/09 15:09:37;;;;;;;2.03;0.43;;;;;;;;;;5055636;28;20657;-61
2021/06/09 15:12:04;;;;;;;2.00;0.77;;;;;;;;;;5058487;28;20180;-61
2021/06/09 15:14:32;;;;;;;0.10;0.10;;;;;;;;;;5056954;28;20257;-61
2021/06/09 15:16:58;;;;;;;1.07;1.07;;;;;;;;;;5059015;28;20175;-63
2021/06/09 15:19:25;;;;;;;2.70;2.00;;;;;;;;;;5056024;28;20484;-61
2021/06/09 15:21:53;;;;;;;0.10;0.10;;;;;;;;;;5058062;28;20171;-61
2021/06/09 15:24:19;;;;;;;0.00;0.00;;;;;;;;;;5060545;28;20302;-61
2021/06/09 15:26:46;;;;;;;2.63;0.40;;;;;;;;;;5057146;28;20187;-60
2021/06/09 15:29:13;;;;;;;2.43;0.30;;;;;;;;;;5052243;28;20175;-61
2021/06/09 15:31:40;;;;;;;1.93;1.70;;;;;;;;;;5055229;28;20186;-61
2021/06/09 15:34:07;;;;;;;3.50;1.80;;;;;;;;;;5056178;28;20237;-61
2021/06/09 15:36:36;;;;;;;0.00;0.00;;;;;;;;;;5060993;28;20253;-61
2021/06/09 15:39:06;;;;;;;1.87;1.20;;;;;;;;;;5055880;28;20256;-61
2021/06/09 15:41:32;;;;;;;2.87;0.60;;;;;;;;;;5045419;28;20759;-61
2021/06/09 15:43:59;;;;;;;34.70;0.73;;;;;;;;;;5054129;28;20187;-62
2021/06/09 15:46:26;;;;;;;0.73;0.73;;;;;;;;;;5050107;28;20184;-63
2021/06/09 15:48:52;;;;;;;0.97;0.53;;;;;;;;;;5051984;28;20176;-62
2021/06/09 15:51:19;;;;;;;7.83;6.90;;;;;;;;;;5053686;28;20175;-63
2021/06/09 15:53:47;;;;;;;0.00;0.00;;;;;;;;;;5052587;28;20285;-63
2021/06/09 15:56:13;;;;;;;1.70;0.20;;;;;;;;;;5044954;28;20181;-62
2021/06/09 15:58:40;;;;;;;0.53;0.53;;;;;;;;;;5053421;28;20315;-63
2021/06/09 16:01:06;;;;;;;2.07;0.23;;;;;;;;;;5054876;28;20818;-63
2021/06/09 16:03:33;;;;;;;0.00;0.00;;;;;;;;;;5057582;28;20181;-63
2021/06/09 16:06:00;;;;;;;1.80;0.40;;;;;;;;;;5049294;28;20843;-63
2021/06/09 16:08:27;;;;;;;10.53;0.83;;;;;;;;;;5046642;28;20637;-63
2021/06/09 16:10:53;;;;;;;0.50;0.43;;;;;;;;;;5055567;28;20707;-64
2021/06/09 16:13:20;;;;;;;0.00;0.00;;;;;;;;;;5054243;28;20181;-63
2021/06/09 16:15:48;;;;;;;0.97;0.47;;;;;;;;;;5054255;28;20181;-63
2021/06/09 16:18:15;;;;;;;0.10;0.10;;;;;;;;;;5053418;28;20900;-63
2021/06/09 16:20:41;;;;;;;4.23;0.83;;;;;;;;;;5054702;28;20246;-63
2021/06/09 16:23:08;;;;;;;5.40;1.80;;;;;;;;;;5055202;28;20186;-63
2021/06/09 16:25:35;;;;;;;3.60;1.37;;;;;;;;;;5050959;28;20178;-64
2021/06/09 16:28:01;;;;;;;1.03;0.93;;;;;;;;;;5052405;28;20185;-64
2021/06/09 16:30:28;;;;;;;4.83;1.33;;;;;;;;;;5058596;28;20190;-63
2021/06/09 16:33:00;;;;;;;0.00;0.00;;;;;;;;;;5054652;28;20860;-64
2021/06/09 16:35:27;;;;;;;0.23;0.07;;;;;;;;;;5053906;28;20589;-63
2021/06/09 16:37:53;;;;;;;0.37;0.20;;;;;;;;;;5056275;28;20173;-63
2021/06/09 16:40:20;;;;;;;2.73;2.10;;;;;;;;;;5052300;28;20983;-63
2021/06/09 16:42:50;;;;;;;17.63;1.93;;;;;;;;;;5051752;28;20514;-63
2021/06/09 16:45:18;;;;;;;0.00;0.00;;;;;;;;;;5058653;28;20184;-65
2021/06/09 16:47:45;;;;;;;0.67;0.67;;;;;;;;;;5055151;28;20219;-64
2021/06/09 16:50:13;;;;;;;5.07;3.03;;;;;;;;;;5051511;28;20178;-63
2021/06/09 16:52:39;;;;;;;1.67;0.63;;;;;;;;;;5045970;28;20487;-64
2021/06/09 17:00:19;;;;;;;4.13;0.53;;;;;;;;;;5049223;28;20238;-64
2021/06/09 17:02:45;;;;;;;0.27;0.17;;;;;;;;;;5053219;28;20216;-64
2021/06/09 17:05:12;;;;;;;9.63;0.93;;;;;;;;;;5050215;28;20184;-62
2021/06/09 17:07:39;;;;;;;0.00;0.00;;;;;;;;;;5045542;28;20188;-63
2021/06/09 17:10:06;;;;;;;0.10;0.10;;;;;;;;;;5052174;28;20197;-63
2021/06/09 17:12:37;;;;;;;0.00;0.00;;;;;;;;;;5052147;28;21010;-64
2021/06/09 17:15:04;;;;;;;3.80;0.70;;;;;;;;;;5056793;28;20195;-64
2021/06/09 17:17:31;;;;;;;0.60;0.40;;;;;;;;;;5057614;28;20180;-64
2021/06/09 17:19:57;;;;;;;5.10;0.60;;;;;;;;;;5051638;28;20253;-64
2021/06/09 17:22:24;;;;;;;21.10;2.83;;;;;;;;;;5049203;28;20203;-63
2021/06/09 17:24:52;;;;;;;3.30;0.93;;;;;;;;;;5054772;28;20183;-63
2021/06/09 17:27:19;;;;;;;6.33;1.13;;;;;;;;;;5058386;28;20269;-63
2021/06/09 17:29:47;;;;;;;0.93;0.93;;;;;;;;;;5051549;28;20187;-63
2021/06/09 17:32:14;;;;;;;7.37;2.10;;;;;;;;;;5050638;28;20184;-63
2021/06/09 17:34:40;;;;;;;0.90;0.37;;;;;;;;;;5058544;28;20187;-63
2021/06/09 17:37:07;;;;;;;0.10;0.10;;;;;;;;;;5056938;28;20280;-63
2021/06/09 17:39:34;;;;;;;2.93;1.13;;;;;;;;;;5056489;28;20216;-63
2021/06/09 17:42:01;;;;;;;2.47;1.43;;;;;;;;;;5056434;28;20202;-63
2021/06/09 17:44:28;;;;;;;0.83;0.60;;;;;;;;;;5054246;28;20190;-63
2021/06/09 17:46:54;;;;;;;0.77;0.77;;;;;;;;;;5055224;28;20191;-63
2021/06/09 17:49:22;;;;;;;1.33;0.93;;;;;;;;;;5058648;28;20180;-62
2021/06/09 17:51:50;;;;;;;2.83;0.83;;;;;;;;;;5058192;28;20284;-63
2021/06/09 17:54:17;;;;;;;3.90;1.70;;;;;;;;;;5055526;28;20239;-63
2021/06/09 17:56:49;;;;;;;6.80;1.70;;;;;;;;;;5056436;28;20608;-63
2021/06/09 17:59:18;;;;;;;2.10;1.67;;;;;;;;;;5056034;28;20227;-63
2021/06/09 18:01:56;;;;;;;4.10;1.40;;;;;;;;;;5057840;28;20716;-63
2021/06/09 18:04:23;;;;;;;5.87;2.23;;;;;;;;;;5058586;28;20235;-63
2021/06/09 18:06:49;;;;;;;0.00;0.00;;;;;;;;;;5057943;28;20208;-63
2021/06/09 18:09:16;;;;;;;8.60;0.87;;;;;;;;;;5057677;28;20187;-63
2021/06/09 18:11:43;;;;;;;0.00;0.00;;;;;;;;;;5053748;28;21047;-63
2021/06/09 18:14:09;;;;;;;0.57;0.57;;;;;;;;;;5055673;28;20509;-64
2021/06/09 18:16:36;;;;;;;0.33;0.20;;;;;;;;;;5063528;28;20217;-63
2021/06/09 18:19:03;;;;;;;3.00;0.63;;;;;;;;;;5054705;28;20193;-64
2021/06/09 18:21:29;;;;;;;1.07;0.67;;;;;;;;;;5061099;28;20186;-64
2021/06/09 18:26:31;;;;;;;3.33;1.13;;;;;;;;;;4190549;22;20693;-69
2021/06/09 18:29:00;;;;;;;7.80;1.60;;;;;;;;;;5055968;28;20210;-69
2021/06/09 18:31:27;;;;;;;1.60;1.30;;;;;;;;;;5053721;28;20260;-67
2021/06/09 18:33:54;;;;;;;0.30;0.30;;;;;;;;;;5057502;28;20830;-68
2021/06/09 18:36:21;;;;;;;2.60;1.17;;;;;;;;;;5059575;28;20835;-67
2021/06/09 18:38:49;;;;;;;0.90;0.40;;;;;;;;;;5056862;28;20272;-68
2021/06/09 18:41:16;;;;;;;0.77;0.77;;;;;;;;;;5059764;28;20195;-67
2021/06/09 18:43:43;;;;;;;9.43;0.87;;;;;;;;;;5055994;28;21130;-68
2021/06/09 18:46:10;;;;;;;4.40;1.57;;;;;;;;;;5058826;28;20250;-68
2021/06/09 18:48:37;;;;;;;4.83;2.97;;;;;;;;;;5048804;28;21138;-68
2021/06/09 18:51:04;;;;;;;7.63;0.87;;;;;;;;;;5054361;28;20274;-68
2021/06/09 18:53:33;;;;;;;0.77;0.70;;;;;;;;;;5058041;28;20688;-68
2021/06/09 18:56:03;;;;;;;9.50;1.30;;;;;;;;;;5055422;28;20200;-69
2021/06/09 18:58:32;;;;;;;2.83;1.07;;;;;;;;;;5058264;28;20216;-68
2021/06/09 19:01:03;;;;;;;0.43;0.43;;;;;;;;;;5059556;28;20900;-68
2021/06/09 19:03:30;;;;;;;2.17;0.97;;;;;;;;;;5059879;28;20317;-68
2021/06/09 19:05:58;;;;;;;0.50;0.47;;;;;;;;;;5055221;28;20193;-68
2021/06/09 19:08:27;;;;;;;3.60;0.40;;;;;;;;;;5052396;28;20293;-68
2021/06/09 19:10:55;;;;;;;6.10;1.03;;;;;;;;;;5053400;28;20674;-68
2021/06/09 19:13:21;;;;;;;0.00;0.00;;;;;;;;;;5058251;28;20577;-68
2021/06/09 19:15:48;;;;;;;1.40;0.43;;;;;;;;;;5059014;28;20288;-68
2021/06/09 19:18:15;;;;;;;0.00;0.00;;;;;;;;;;5059256;28;20343;-68
2021/06/09 19:20:42;;;;;;;0.50;0.40;;;;;;;;;;5058840;28;20222;-67
2021/06/09 19:23:10;;;;;;;0.90;0.30;;;;;;;;;;5058682;28;20567;-66
2021/06/09 19:25:40;;;;;;;0.20;0.20;;;;;;;;;;5055969;28;20229;-67
2021/06/09 19:28:07;;;;;;;0.93;0.93;;;;;;;;;;5058390;28;20204;-67
2021/06/09 19:30:35;;;;;;;0.27;0.27;;;;;;;;;;5051837;28;20888;-67
2021/06/09 19:33:02;;;;;;;0.07;0.07;;;;;;;;;;5058644;28;20191;-68
2021/06/09 19:38:16;;;;;;;0.00;0.00;;;;;;;;;;5074609;22;21025;-67
2021/06/09 19:40:43;;;;;;;0.00;0.00;;;;;;;;;;5052665;28;20217;-67
2021/06/09 19:43:10;;;;;;;2.47;1.23;;;;;;;;;;5055293;28;20204;-67
2021/06/09 19:45:37;;;;;;;0.00;0.00;;;;;;;;;;5057343;28;20184;-67
2021/06/09 19:48:04;;;;;;;0.30;0.30;;;;;;;;;;5046148;28;20292;-66
2021/06/09 19:50:33;;;;;;;0.00;0.00;;;;;;;;;;5050293;28;20469;-67
2021/06/09 19:53:00;;;;;;;0.07;0.07;;;;;;;;;;5058953;28;20209;-67
2021/06/09 19:55:26;;;;;;;0.67;0.40;;;;;;;;;;5057682;28;20188;-68
2021/06/09 19:57:53;;;;;;;3.50;0.80;;;;;;;;;;5054079;28;20194;-67
2021/06/09 20:00:20;;;;;;;1.57;0.97;;;;;;;;;;5053531;28;20298;-68
2021/06/09 20:02:47;;;;;;;5.03;4.80;;;;;;;;;;5055110;28;20189;-68
2021/06/09 20:05:14;;;;;;;0.40;0.40;;;;;;;;;;5050434;28;20294;-67
2021/06/09 20:07:41;;;;;;;2.00;1.73;;;;;;;;;;5052929;28;20701;-67
2021/06/09 20:10:09;;;;;;;0.10;0.10;;;;;;;;;;5045255;28;20191;-68
2021/06/09 20:12:35;;;;;;;0.70;0.47;;;;;;;;;;5055352;28;20236;-68
2021/06/09 20:15:02;;;;;;;5.53;1.60;;;;;;;;;;5052219;28;20193;-67
2021/06/09 20:20:16;;;;;;;0.00;0.00;;;;;;;;;;5083575;22;20293;-67
2021/06/09 20:22:47;;;;;;;0.00;0.00;;;;;;;;;;5077814;28;20188;-68
2021/06/09 20:28:00;;;;;;;0.67;0.67;;;;;;;;;;5066560;28;20188;-67
2021/06/09 20:30:26;;;;;;;0.90;0.43;;;;;;;;;;5073994;28;20215;-68
2021/06/09 20:32:55;;;;;;;1.07;0.97;;;;;;;;;;5067208;28;20196;-67
2021/06/09 20:35:24;;;;;;;0.00;0.00;;;;;;;;;;5076591;28;20220;-67
2021/06/09 20:37:51;;;;;;;0.00;0.00;;;;;;;;;;5078318;28;20195;-67
2021/06/09 20:40:18;;;;;;;0.00;0.00;;;;;;;;;;5078335;28;20216;-67
2021/06/09 20:42:45;;;;;;;3.10;2.80;;;;;;;;;;5077982;28;20192;-68
2021/06/09 20:45:15;;;;;;;1.07;0.73;;;;;;;;;;5070820;28;20233;-66
2021/06/09 20:47:41;;;;;;;1.93;0.83;;;;;;;;;;5073522;28;20966;-67
2021/06/09 20:50:09;;;;;;;4.03;2.97;;;;;;;;;;5077512;28;20289;-68
2021/06/09 20:52:36;;;;;;;6.10;2.50;;;;;;;;;;5071767;28;20184;-69
2021/06/09 20:55:03;;;;;;;0.50;0.50;;;;;;;;;;5076740;28;20193;-68
2021/06/09 21:00:17;;;;;;;0.47;0.47;;;;;;;;;;5098124;22;20906;-68
2021/06/09 21:02:44;;;;;;;8.13;1.50;;;;;;;;;;5076748;28;20362;-67
2021/06/09 21:05:11;;;;;;;1.70;1.63;;;;;;;;;;5079223;28;20177;-68
2021/06/09 21:07:38;;;;;;;0.87;0.43;;;;;;;;;;5078353;28;20298;-69
2021/06/09 21:10:05;;;;;;;0.10;0.10;;;;;;;;;;5086235;28;20200;-68
2021/06/09 21:12:31;;;;;;;0.00;0.00;;;;;;;;;;5076156;28;20930;-62
2021/06/09 21:15:00;;;;;;;0.00;0.00;;;;;;;;;;5074026;28;20273;-70
2021/06/09 21:17:29;;;;;;;0.23;0.23;;;;;;;;;;5072893;28;20194;-71
2021/06/09 21:19:55;;;;;;;3.23;1.63;;;;;;;;;;5063261;28;20247;-72
2021/06/09 21:22:22;;;;;;;4.63;0.80;;;;;;;;;;5082750;28;20277;-70
2021/06/09 21:24:48;;;;;;;0.03;0.03;;;;;;;;;;5075707;28;20225;-74
2021/06/09 21:27:18;;;;;;;0.10;0.10;;;;;;;;;;5075875;28;20184;-71
2021/06/09 21:29:45;;;;;;;0.00;0.00;;;;;;;;;;5071376;28;20191;-72
2021/06/09 21:32:11;;;;;;;0.00;0.00;;;;;;;;;;5084186;28;20179;-72
2021/06/09 21:34:38;;;;;;;0.63;0.63;;;;;;;;;;5082751;28;20496;-73
2021/06/09 21:37:05;;;;;;;0.13;0.13;;;;;;;;;;5087145;28;20185;-69
2021/06/09 21:39:32;;;;;;;0.00;0.00;;;;;;;;;;5085394;28;20196;-67
2021/06/09 21:41:58;;;;;;;0.00;0.00;;;;;;;;;;5080879;28;20173;-71
2021/06/09 21:44:25;;;;;;;0.03;0.03;;;;;;;;;;5078719;28;20204;-67
2021/06/09 21:46:54;;;;;;;5.03;2.37;;;;;;;;;;5081421;28;20245;-68
2021/06/09 21:49:20;;;;;;;0.00;0.00;;;;;;;;;;5080562;28;20204;-67
2021/06/09 21:51:49;;;;;;;0.00;0.00;;;;;;;;;;5081671;28;20255;-69
2021/06/09 21:54:16;;;;;;;0.77;0.77;;;;;;;;;;5081330;28;20181;-70
2021/06/09 21:56:43;;;;;;;8.77;1.70;;;;;;;;;;5083319;28;20803;-69
2021/06/09 21:59:10;;;;;;;0.73;0.73;;;;;;;;;;5085325;28;20319;-67
2021/06/09 22:01:37;;;;;;;0.00;0.00;;;;;;;;;;5081834;28;20292;-67
2021/06/09 22:04:04;;;;;;;0.00;0.00;;;;;;;;;;5082226;28;20182;-68
2021/06/09 22:06:31;;;;;;;0.00;0.00;;;;;;;;;;5086829;28;20185;-67
2021/06/09 22:08:58;;;;;;;0.83;0.63;;;;;;;;;;5082485;28;20237;-74
2021/06/09 22:11:25;;;;;;;1.60;0.20;;;;;;;;;;5080695;28;20288;-67
2021/06/09 22:13:52;;;;;;;0.93;0.67;;;;;;;;;;5076089;28;20196;-70
2021/06/09 22:16:18;;;;;;;0.00;0.00;;;;;;;;;;5080303;28;20646;-72
2021/06/09 22:18:45;;;;;;;0.00;0.00;;;;;;;;;;5072629;28;20297;-68
2021/06/09 22:21:15;;;;;;;0.87;0.67;;;;;;;;;;5075304;28;20295;-69
2021/06/09 22:23:42;;;;;;;0.00;0.00;;;;;;;;;;5068525;28;20181;-67
2021/06/09 22:26:08;;;;;;;1.33;1.23;;;;;;;;;;5067728;28;20193;-67
2021/06/09 22:28:35;;;;;;;0.20;0.03;;;;;;;;;;5048258;28;20194;-66
2021/06/09 22:31:02;;;;;;;0.10;0.10;;;;;;;;;;5069821;28;20183;-71
2021/06/09 22:33:29;;;;;;;0.20;0.20;;;;;;;;;;5054793;28;20305;-69
2021/06/09 22:35:55;;;;;;;0.67;0.67;;;;;;;;;;5067062;28;20185;-67
2021/06/09 22:38:22;;;;;;;0.00;0.00;;;;;;;;;;5072064;28;20190;-70
2021/06/09 22:40:49;;;;;;;0.10;0.10;;;;;;;;;;5066670;28;20205;-70
2021/06/09 22:43:15;;;;;;;4.20;2.43;;;;;;;;;;5069985;28;20197;-68
2021/06/09 22:45:44;;;;;;;6.63;6.03;;;;;;;;;;5062966;28;20326;-68
2021/06/09 22:48:11;;;;;;;0.57;0.57;;;;;;;;;;5067140;28;20182;-73
2021/06/09 22:50:38;;;;;;;3.30;0.70;;;;;;;;;;5061523;28;20209;-70
2021/06/09 22:53:05;;;;;;;0.30;0.30;;;;;;;;;;5066267;28;20286;-74
2021/06/09 22:55:32;;;;;;;0.00;0.00;;;;;;;;;;5066526;28;20212;-68
2021/06/09 22:57:59;;;;;;;5.97;1.93;;;;;;;;;;5074271;28;20997;-67
2021/06/09 23:00:30;;;;;;;0.17;0.13;;;;;;;;;;5075890;28;20205;-66
2021/06/09 23:02:56;;;;;;;0.73;0.73;;;;;;;;;;5073182;28;20190;-65
2021/06/09 23:05:24;;;;;;;0.40;0.37;;;;;;;;;;5076636;28;20578;-65
2021/06/09 23:07:54;;;;;;;1.47;1.37;;;;;;;;;;5079840;28;20196;-68
2021/06/09 23:10:21;;;;;;;0.03;0.03;;;;;;;;;;5056012;28;20197;-71
2021/06/09 23:12:47;;;;;;;0.00;0.00;;;;;;;;;;5078431;28;20210;-71
2021/06/09 23:15:15;;;;;;;0.00;0.00;;;;;;;;;;5080173;28;20197;-71
2021/06/09 23:17:43;;;;;;;2.90;1.27;;;;;;;;;;5068576;28;20181;-71
2021/06/09 23:20:11;;;;;;;1.03;0.50;;;;;;;;;;5070135;28;20265;-72
2021/06/09 23:22:38;;;;;;;1.50;0.67;;;;;;;;;;5076040;28;20192;-68
2021/06/09 23:25:06;;;;;;;0.00;0.00;;;;;;;;;;5074822;28;20630;-67
2021/06/09 23:27:35;;;;;;;0.00;0.00;;;;;;;;;;5078421;28;20178;-67
2021/06/09 23:30:02;;;;;;;1.50;0.83;;;;;;;;;;5074899;28;20436;-75
2021/06/09 23:32:35;;;;;;;5.17;0.33;;;;;;;;;;5084789;28;20180;-71
2021/06/09 23:35:04;;;;;;;0.33;0.20;;;;;;;;;;5080538;28;20192;-71
2021/06/09 23:37:33;;;;;;;1.73;0.70;;;;;;;;;;5077113;28;20196;-78
2021/06/09 23:40:00;;;;;;;5.93;2.13;;;;;;;;;;5078659;28;20209;-67
2021/06/09 23:42:27;;;;;;;0.00;0.00;;;;;;;;;;5077710;28;20507;-68
2021/06/09 23:44:56;;;;;;;0.00;0.00;;;;;;;;;;5076748;28;20185;-69
2021/06/09 23:47:23;;;;;;;0.00;0.00;;;;;;;;;;5078435;28;20294;-68
2021/06/09 23:52:28;;;;;;;0.00;0.00;;;;;;;;;;5081015;28;20275;-67
2021/06/09 23:54:54;;;;;;;0.00;0.00;;;;;;;;;;5073968;28;20201;-70
2021/06/09 23:57:21;;;;;;;0.00;0.00;;;;;;;;;;5075041;28;20273;-75
2021/06/09 23:59:48;;;;;;;0.00;0.00;;;;;;;;;;5080310;28;20228;-73
